createdAt,value
2022-08-12T00:00:35.995Z,28.20
2022-08-12T00:03:23.360Z,28.20
2022-08-12T00:06:09.822Z,28.10
2022-08-12T00:08:57.425Z,28.10
2022-08-12T00:11:44.740Z,28.10
2022-08-12T00:14:30.854Z,28.00
2022-08-12T00:17:16.979Z,27.90
2022-08-12T00:20:04.723Z,27.80
2022-08-12T00:22:59.332Z,27.90
2022-08-12T00:26:21.452Z,27.90
2022-08-12T00:29:01.372Z,27.80
2022-08-12T00:31:47.258Z,27.80
2022-08-12T00:34:33.428Z,27.80
2022-08-12T00:37:20.737Z,27.80
2022-08-12T00:40:11.271Z,27.70
2022-08-12T00:42:41.138Z,27.70
2022-08-12T00:45:10.510Z,27.80
2022-08-12T00:47:40.538Z,27.80
2022-08-12T00:50:17.626Z,27.80
2022-08-12T00:52:47.921Z,27.70
2022-08-12T00:55:17.311Z,27.60
2022-08-12T00:57:48.488Z,27.60
2022-08-12T01:00:18.878Z,27.60
2022-08-12T01:02:51.563Z,27.60
2022-08-12T01:05:41.979Z,27.60
2022-08-12T01:08:29.183Z,27.60
2022-08-12T01:11:15.688Z,27.60
2022-08-12T01:13:48.179Z,27.50
2022-08-12T01:16:19.487Z,27.40
2022-08-12T01:18:47.779Z,27.40
2022-08-12T01:21:34.329Z,27.40
2022-08-12T01:24:30.133Z,27.40
2022-08-12T01:27:03.317Z,27.40
2022-08-12T01:29:42.887Z,27.40
2022-08-12T01:32:14.232Z,27.40
2022-08-12T01:34:50.408Z,27.40
2022-08-12T01:37:23.320Z,27.40
2022-08-12T01:40:35.437Z,27.40
2022-08-12T01:42:47.124Z,27.40
2022-08-12T01:45:17.445Z,27.10
2022-08-12T01:47:57.283Z,27.10
2022-08-12T01:50:37.798Z,27.10
2022-08-12T01:53:11.297Z,27.10
2022-08-12T01:55:41.214Z,27.10
2022-08-12T01:58:26.680Z,27.00
2022-08-12T02:01:00.905Z,26.90
2022-08-12T02:04:13.907Z,26.90
2022-08-12T02:07:07.466Z,26.80
2022-08-12T02:10:08.696Z,26.80
2022-08-12T02:12:49.160Z,26.80
2022-08-12T02:15:28.482Z,26.60
2022-08-12T02:18:10.152Z,26.60
2022-08-12T02:20:51.942Z,26.60
2022-08-12T02:23:26.889Z,26.60
2022-08-12T02:25:59.757Z,26.60
2022-08-12T02:28:28.792Z,26.60
2022-08-12T02:31:02.662Z,26.30
2022-08-12T02:33:32.142Z,26.30
2022-08-12T02:36:01.832Z,26.30
2022-08-12T02:38:31.329Z,26.40
2022-08-12T02:41:02.420Z,26.50
2022-08-12T02:43:37.778Z,26.50
2022-08-12T02:46:14.095Z,26.50
2022-08-12T02:48:50.515Z,26.50
2022-08-12T02:51:24.968Z,26.50
2022-08-12T02:54:04.994Z,26.50
2022-08-12T02:56:37.646Z,26.40
2022-08-12T02:59:06.687Z,26.30
2022-08-12T03:01:42.578Z,26.20
2022-08-12T03:04:22.614Z,26.10
2022-08-12T03:07:00.601Z,26.10
2022-08-12T03:09:35.074Z,26.10
2022-08-12T03:12:22.615Z,26.00
2022-08-12T03:14:53.070Z,26.00
2022-08-12T03:17:28.726Z,25.90
2022-08-12T03:20:08.703Z,25.80
2022-08-12T03:22:46.764Z,25.80
2022-08-12T03:25:17.305Z,25.70
2022-08-12T03:27:51.530Z,25.80
2022-08-12T03:30:20.334Z,25.80
2022-08-12T03:32:51.974Z,25.60
2022-08-12T03:35:41.051Z,25.60
2022-08-12T03:38:12.230Z,25.60
2022-08-12T03:41:12.821Z,25.60
2022-08-12T03:44:16.856Z,25.20
2022-08-12T03:47:07.213Z,25.10
2022-08-12T03:49:54.888Z,25.20
2022-08-12T03:52:40.391Z,25.20
2022-08-12T03:55:27.154Z,25.10
2022-08-12T03:58:12.688Z,25.10
2022-08-12T04:00:40.769Z,25.20
2022-08-12T04:03:30.534Z,25.20
2022-08-12T04:05:59.856Z,25.20
2022-08-12T04:08:28.104Z,25.20
2022-08-12T04:11:13.953Z,25.30
2022-08-12T04:13:42.050Z,25.20
2022-08-12T04:16:14.405Z,25.20
2022-08-12T04:18:42.737Z,25.20
2022-08-12T04:21:12.335Z,24.90
2022-08-12T04:23:47.632Z,25.10
2022-08-12T04:26:16.475Z,25.20
2022-08-12T04:28:44.500Z,24.70
2022-08-12T04:31:14.174Z,24.40
2022-08-12T04:33:43.455Z,24.20
2022-08-12T04:36:12.837Z,24.30
2022-08-12T04:38:41.187Z,24.30
2022-08-12T04:41:10.840Z,24.50
2022-08-12T04:44:00.065Z,24.60
2022-08-12T04:46:30.718Z,24.60
2022-08-12T04:49:03.217Z,24.60
2022-08-12T04:51:33.436Z,24.70
2022-08-12T04:54:02.656Z,24.70
2022-08-12T04:56:35.500Z,24.70
2022-08-12T04:59:05.383Z,24.70
2022-08-12T05:01:33.392Z,24.70
2022-08-12T05:04:02.727Z,24.70
2022-08-12T05:06:32.707Z,24.80
2022-08-12T05:09:00.826Z,24.80
2022-08-12T05:11:29.763Z,24.80
2022-08-12T05:14:00.732Z,24.90
2022-08-12T05:16:32.387Z,24.90
2022-08-12T05:19:02.703Z,25.00
2022-08-12T05:21:32.090Z,25.00
2022-08-12T05:24:00.077Z,25.10
2022-08-12T05:26:28.267Z,25.10
2022-08-12T05:28:56.203Z,25.10
2022-08-12T05:31:40.438Z,25.20
2022-08-12T05:34:15.501Z,25.40
2022-08-12T05:36:44.987Z,25.50
2022-08-12T05:39:13.167Z,25.50
2022-08-12T05:41:41.478Z,25.50
2022-08-12T05:44:13.387Z,25.50
2022-08-12T05:46:42.182Z,25.60
2022-08-12T05:49:10.425Z,25.60
2022-08-12T05:51:41.733Z,25.60
2022-08-12T05:54:12.125Z,25.70
2022-08-12T05:56:41.388Z,25.80
2022-08-12T05:59:11.231Z,25.80
2022-08-12T06:02:08.986Z,25.80
2022-08-12T06:04:28.326Z,25.80
2022-08-12T06:06:56.349Z,25.80
2022-08-12T06:09:26.389Z,25.90
2022-08-12T06:12:04.806Z,25.90
2022-08-12T06:14:36.897Z,25.90
2022-08-12T06:17:09.074Z,25.70
2022-08-12T06:20:27.501Z,25.60
2022-08-12T06:22:26.584Z,25.60
2022-08-12T06:24:56.096Z,25.70
2022-08-12T06:27:24.058Z,25.80
2022-08-12T06:30:08.283Z,25.90
2022-08-12T06:33:04.224Z,26.00
2022-08-12T06:35:48.463Z,26.00
2022-08-12T06:38:17.423Z,26.10
2022-08-12T06:41:05.589Z,26.10
2022-08-12T06:44:06.497Z,26.20
2022-08-12T06:46:23.929Z,26.30
2022-08-12T06:48:56.864Z,26.30
2022-08-12T06:51:25.421Z,26.40
2022-08-12T06:53:53.563Z,26.40
2022-08-12T06:56:34.696Z,26.50
2022-08-12T06:59:11.589Z,26.50
2022-08-12T07:01:39.508Z,26.60
2022-08-12T07:04:35.339Z,26.60
2022-08-12T07:06:55.830Z,26.60
2022-08-12T07:10:00.073Z,26.60
2022-08-12T07:12:19.832Z,26.40
2022-08-12T07:14:51.504Z,26.50
2022-08-12T07:17:19.800Z,26.60
2022-08-12T07:19:49.133Z,26.60
2022-08-12T07:22:17.752Z,26.60
2022-08-12T07:25:06.434Z,26.60
2022-08-12T07:27:40.717Z,26.60
2022-08-12T07:30:10.921Z,26.70
2022-08-12T07:32:38.877Z,26.80
2022-08-12T07:35:07.763Z,26.90
2022-08-12T07:37:41.857Z,26.80
2022-08-12T07:40:11.611Z,26.80
2022-08-12T07:42:43.565Z,26.80
2022-08-12T07:45:12.284Z,26.90
2022-08-12T07:47:43.348Z,26.80
2022-08-12T07:50:12.632Z,26.90
2022-08-12T07:52:42.686Z,27.00
2022-08-12T07:55:12.742Z,27.00
2022-08-12T07:57:54.104Z,27.10
2022-08-12T08:00:22.720Z,27.20
2022-08-12T08:02:54.162Z,27.30
2022-08-12T08:05:23.509Z,27.40
2022-08-12T08:07:53.255Z,27.40
2022-08-12T08:10:21.396Z,27.50
2022-08-12T08:12:58.094Z,27.40
2022-08-12T08:15:58.931Z,27.50
2022-08-12T08:18:26.293Z,27.60
2022-08-12T08:20:57.241Z,27.70
2022-08-12T08:23:55.605Z,27.70
2022-08-12T08:26:25.789Z,27.70
2022-08-12T08:28:55.232Z,27.80
2022-08-12T08:31:23.200Z,28.00
2022-08-12T08:34:05.014Z,28.00
2022-08-12T08:36:40.034Z,28.20
2022-08-12T08:39:08.407Z,28.30
2022-08-12T08:42:18.804Z,28.40
2022-08-12T08:44:43.876Z,28.40
2022-08-12T08:47:13.915Z,28.40
2022-08-12T08:49:42.458Z,28.40
2022-08-12T08:52:12.261Z,28.50
2022-08-12T08:54:40.506Z,28.60
2022-08-12T08:57:09.158Z,28.60
2022-08-12T08:59:37.243Z,28.60
2022-08-12T09:02:07.677Z,28.60
2022-08-12T09:05:13.207Z,28.70
2022-08-12T09:07:51.578Z,28.70
2022-08-12T09:10:30.979Z,28.70
2022-08-12T09:13:23.615Z,28.70
2022-08-12T09:18:46.781Z,28.60
2022-08-12T09:21:14.875Z,28.40
2022-08-12T09:26:31.631Z,28.30
2022-08-12T09:29:02.693Z,28.40
2022-08-12T09:32:07.794Z,28.50
2022-08-12T09:34:36.278Z,28.50
2022-08-12T09:37:19.587Z,28.50
2022-08-12T09:40:00.839Z,28.50
2022-08-12T09:43:03.599Z,28.50
2022-08-12T09:46:06.281Z,28.50
2022-08-12T09:48:24.347Z,28.50
2022-08-12T09:50:55.235Z,28.60
2022-08-12T09:53:29.389Z,28.70
2022-08-12T09:56:40.134Z,28.70
2022-08-12T09:58:59.901Z,28.60
2022-08-12T10:01:34.354Z,28.60
2022-08-12T10:04:04.901Z,28.60
2022-08-12T10:06:36.623Z,28.60
2022-08-12T10:09:06.791Z,28.50
2022-08-12T10:12:11.415Z,28.50
2022-08-12T10:14:52.312Z,28.50
2022-08-12T10:17:23.427Z,28.60
2022-08-12T10:19:52.919Z,28.70
2022-08-12T10:22:36.722Z,28.90
2022-08-12T10:26:33.710Z,28.90
2022-08-12T10:28:32.836Z,29.00
2022-08-12T10:31:01.580Z,28.90
2022-08-12T10:33:32.251Z,29.10
2022-08-12T10:36:01.775Z,29.00
2022-08-12T10:38:37.406Z,28.90
2022-08-12T10:41:58.410Z,28.90
2022-08-12T10:44:17.040Z,28.90
2022-08-12T10:46:49.488Z,28.90
2022-08-12T10:50:05.862Z,28.90
2022-08-12T10:52:34.757Z,29.00
2022-08-12T10:54:56.425Z,29.20
2022-08-12T10:58:12.973Z,29.30
2022-08-12T11:00:33.953Z,29.30
2022-08-12T11:04:26.118Z,29.20
2022-08-12T11:07:07.395Z,29.30
2022-08-12T11:08:43.232Z,29.30
2022-08-12T11:11:17.936Z,29.30
2022-08-12T11:14:05.874Z,29.20
2022-08-12T11:16:33.850Z,29.10
2022-08-12T11:19:05.603Z,29.10
2022-08-12T11:21:58.352Z,29.30
2022-08-12T11:24:31.726Z,29.50
2022-08-12T11:27:11.389Z,29.50
2022-08-12T11:30:01.562Z,29.40
2022-08-12T11:32:27.679Z,29.30
2022-08-12T11:34:59.091Z,29.20
2022-08-12T11:37:27.478Z,29.20
2022-08-12T11:42:37.405Z,29.30
2022-08-12T11:45:10.406Z,29.30
2022-08-12T11:47:40.386Z,29.40
2022-08-12T11:50:11.769Z,29.60
2022-08-12T11:52:56.747Z,29.70
2022-08-12T11:55:25.366Z,29.70
2022-08-12T11:58:14.307Z,29.70
2022-08-12T12:03:45.624Z,29.60
2022-08-12T12:06:16.314Z,29.60
2022-08-12T12:08:50.422Z,29.60
2022-08-12T12:11:19.877Z,29.70
2022-08-12T12:14:08.460Z,29.60
2022-08-12T12:16:39.713Z,29.50
2022-08-12T12:19:08.810Z,29.60
2022-08-12T12:21:47.133Z,29.80
2022-08-12T12:24:21.642Z,29.90
2022-08-12T12:27:00.146Z,29.90
2022-08-12T12:30:13.525Z,29.90
2022-08-12T12:32:19.206Z,29.80
2022-08-12T12:35:13.186Z,29.60
2022-08-12T12:38:03.261Z,29.70
2022-08-12T12:40:34.410Z,29.80
2022-08-12T12:43:04.998Z,30.00
2022-08-12T12:45:36.661Z,29.90
2022-08-12T12:48:07.830Z,29.80
2022-08-12T12:50:45.702Z,29.90
2022-08-12T12:54:06.438Z,30.00
2022-08-12T12:56:16.422Z,30.10
2022-08-12T12:58:44.777Z,30.10
2022-08-12T13:01:26.864Z,29.90
2022-08-12T13:04:02.208Z,29.90
2022-08-12T13:06:32.011Z,29.80
2022-08-12T13:09:02.953Z,29.70
2022-08-12T13:11:40.651Z,29.80
2022-08-12T13:14:13.010Z,29.70
2022-08-12T13:16:58.518Z,29.70
2022-08-12T13:19:37.931Z,29.80
2022-08-12T13:22:19.949Z,29.80
2022-08-12T13:24:54.532Z,29.70
2022-08-12T13:27:28.104Z,29.90
2022-08-12T13:29:59.865Z,29.80
2022-08-12T13:32:31.818Z,29.70
2022-08-12T13:35:04.693Z,29.90
2022-08-12T13:37:54.998Z,30.10
2022-08-12T13:40:24.813Z,30.30
2022-08-12T13:42:57.690Z,30.40
2022-08-12T13:45:26.107Z,30.20
2022-08-12T13:47:57.847Z,30.10
2022-08-12T13:50:32.417Z,30.00
2022-08-12T13:53:23.171Z,30.00
2022-08-12T13:56:01.515Z,30.10
2022-08-12T13:58:32.934Z,30.20
2022-08-12T14:01:05.701Z,30.00
2022-08-12T14:03:51.420Z,29.90
2022-08-12T14:06:21.566Z,29.90
2022-08-12T14:08:54.761Z,29.80
2022-08-12T14:11:27.997Z,29.90
2022-08-12T14:14:04.206Z,30.00
2022-08-12T14:16:47.084Z,30.10
2022-08-12T14:19:24.375Z,30.20
2022-08-12T14:22:01.247Z,30.30
2022-08-12T14:24:35.059Z,30.20
2022-08-12T14:27:03.541Z,30.30
2022-08-12T14:29:56.526Z,30.30
2022-08-12T14:32:25.211Z,30.20
2022-08-12T14:34:56.698Z,30.20
2022-08-12T14:37:56.106Z,30.10
2022-08-12T14:40:18.383Z,30.00
2022-08-12T14:42:47.163Z,30.00
2022-08-12T14:45:15.488Z,30.10
2022-08-12T14:47:51.298Z,30.00
2022-08-12T14:50:58.182Z,30.00
2022-08-12T14:54:55.944Z,30.10
2022-08-12T14:59:23.668Z,29.90
2022-08-12T15:01:52.438Z,30.00
2022-08-12T15:04:28.626Z,30.10
2022-08-12T15:06:58.557Z,30.00
2022-08-12T15:09:29.474Z,30.00
2022-08-12T15:12:03.263Z,30.00
2022-08-12T15:14:32.378Z,30.10
2022-08-12T15:17:06.998Z,30.20
2022-08-12T15:20:11.619Z,30.20
2022-08-12T15:22:38.600Z,30.10
2022-08-12T15:25:17.633Z,30.10
2022-08-12T15:28:11.025Z,29.90
2022-08-12T15:30:37.169Z,29.90
2022-08-12T15:33:14.929Z,29.90
2022-08-12T15:35:52.934Z,29.90
2022-08-12T15:38:24.896Z,29.80
2022-08-12T15:40:53.460Z,29.70
2022-08-12T15:43:56.967Z,29.70
2022-08-12T15:46:14.804Z,29.80
2022-08-12T15:48:46.660Z,29.90
2022-08-12T15:51:58.749Z,29.90
2022-08-12T15:54:33.352Z,29.80
2022-08-12T15:57:07.639Z,29.80
2022-08-12T16:00:04.609Z,29.80
2022-08-12T16:02:27.022Z,29.70
2022-08-12T16:04:55.445Z,29.70
2022-08-12T16:07:26.260Z,29.70
2022-08-12T16:10:06.825Z,29.70
2022-08-12T16:12:41.390Z,29.70
2022-08-12T16:15:10.589Z,29.80
2022-08-12T16:18:17.925Z,29.80
2022-08-12T16:20:33.496Z,29.80
2022-08-12T16:23:04.353Z,29.90
2022-08-12T16:26:00.147Z,29.90
2022-08-12T16:28:22.597Z,29.90
2022-08-12T16:30:56.168Z,30.00
2022-08-12T16:33:35.739Z,30.10
2022-08-12T16:36:25.476Z,30.00
2022-08-12T16:38:53.593Z,29.80
2022-08-12T16:41:23.727Z,29.70
2022-08-12T16:43:53.352Z,29.60
2022-08-12T16:46:32.134Z,29.70
2022-08-12T16:49:09.265Z,29.50
2022-08-12T16:51:46.839Z,29.50
2022-08-12T16:54:17.086Z,29.50
2022-08-12T16:56:54.654Z,29.50
2022-08-12T16:59:23.980Z,29.40
2022-08-12T17:01:52.122Z,29.40
2022-08-12T17:04:24.312Z,29.40
2022-08-12T17:06:52.967Z,29.30
2022-08-12T17:09:21.072Z,29.30
2022-08-12T17:11:50.668Z,29.30
2022-08-12T17:14:20.329Z,29.30
2022-08-12T17:16:52.236Z,29.40
2022-08-12T17:19:25.244Z,29.50
2022-08-12T17:22:11.632Z,29.50
2022-08-12T17:24:44.058Z,29.60
2022-08-12T17:27:25.185Z,29.60
2022-08-12T17:30:01.329Z,29.50
2022-08-12T17:32:35.902Z,29.50
2022-08-12T17:35:30.049Z,29.60
2022-08-12T17:38:06.859Z,29.60
2022-08-12T17:40:37.178Z,29.60
2022-08-12T17:43:55.763Z,29.50
2022-08-12T17:45:59.711Z,29.50
2022-08-12T17:48:35.069Z,29.60
2022-08-12T17:51:15.736Z,29.70
2022-08-12T17:54:10.708Z,29.60
2022-08-12T17:56:37.150Z,29.60
2022-08-12T17:59:09.504Z,29.70
2022-08-12T18:01:44.330Z,29.70
2022-08-12T18:04:23.319Z,29.80
2022-08-12T18:07:03.237Z,29.80
2022-08-12T18:09:37.377Z,29.70
2022-08-12T18:12:24.299Z,29.70
2022-08-12T18:14:58.452Z,29.90
2022-08-12T18:17:27.582Z,29.90
2022-08-12T18:20:06.396Z,30.10
2022-08-12T18:22:36.318Z,30.00
2022-08-12T18:25:24.946Z,30.20
2022-08-12T18:28:15.776Z,30.20
2022-08-12T18:30:53.351Z,30.40
2022-08-12T18:33:25.569Z,30.50
2022-08-12T18:35:56.974Z,30.60
2022-08-12T18:38:27.798Z,30.60
2022-08-12T18:41:21.599Z,30.80
2022-08-12T18:44:01.105Z,31.00
2022-08-12T18:46:38.714Z,31.10
2022-08-12T18:49:18.745Z,31.30
2022-08-12T18:51:55.325Z,31.40
2022-08-12T18:54:32.276Z,31.40
2022-08-12T18:57:03.681Z,31.40
2022-08-12T19:00:00.998Z,31.50
2022-08-12T19:02:23.375Z,31.50
2022-08-12T19:04:53.867Z,31.50
2022-08-12T19:07:23.872Z,31.50
2022-08-12T19:09:59.037Z,31.60
2022-08-12T19:12:57.180Z,31.50
2022-08-12T19:15:26.825Z,31.50
2022-08-12T19:18:00.542Z,31.50
2022-08-12T19:20:30.644Z,31.50
2022-08-12T19:23:07.192Z,31.50
2022-08-12T19:25:59.653Z,31.50
2022-08-12T19:28:30.224Z,31.50
2022-08-12T19:31:45.423Z,31.50
2022-08-12T19:37:20.000Z,31.50
2022-08-12T19:40:10.091Z,31.50
2022-08-12T19:42:42.739Z,31.50
2022-08-12T19:45:15.659Z,31.50
2022-08-12T19:47:45.940Z,31.50
2022-08-12T19:50:20.284Z,31.40
2022-08-12T19:52:51.145Z,31.40
2022-08-12T19:55:21.777Z,31.40
2022-08-12T19:58:02.243Z,31.30
2022-08-12T20:00:35.276Z,31.40
2022-08-12T20:03:05.203Z,31.40
2022-08-12T20:06:04.471Z,31.30
2022-08-12T20:08:31.604Z,31.30
2022-08-12T20:12:09.323Z,31.20
2022-08-12T20:14:01.067Z,31.20
2022-08-12T20:16:57.655Z,31.20
2022-08-12T20:19:52.558Z,31.20
2022-08-12T20:22:23.948Z,31.10
2022-08-12T20:24:57.645Z,31.10
2022-08-12T20:28:02.810Z,31.10
2022-08-12T20:30:52.533Z,31.10
2022-08-12T20:33:17.752Z,31.00
2022-08-12T20:36:12.890Z,31.00
2022-08-12T20:38:39.433Z,31.00
2022-08-12T20:41:16.790Z,31.00
2022-08-12T20:43:51.922Z,30.90
2022-08-12T20:46:21.563Z,30.90
2022-08-12T20:48:55.267Z,30.90
2022-08-12T20:51:27.694Z,30.90
2022-08-12T20:53:59.658Z,31.00
2022-08-12T20:56:34.160Z,30.90
2022-08-12T20:59:05.598Z,30.80
2022-08-12T21:01:46.902Z,30.60
2022-08-12T21:04:35.541Z,30.50
2022-08-12T21:07:09.317Z,30.50
2022-08-12T21:09:44.459Z,30.50
2022-08-12T21:12:28.695Z,30.40
2022-08-12T21:15:23.169Z,30.40
2022-08-12T21:18:08.268Z,30.40
2022-08-12T21:20:44.420Z,30.40
2022-08-12T21:23:13.737Z,30.30
2022-08-12T21:25:45.488Z,30.30
2022-08-12T21:28:14.564Z,30.20
2022-08-12T21:31:11.636Z,30.20
2022-08-12T21:33:32.152Z,30.20
2022-08-12T21:36:32.324Z,30.20
2022-08-12T21:39:20.522Z,30.20
2022-08-12T21:41:53.092Z,30.20
2022-08-12T21:44:24.454Z,30.10
2022-08-12T21:47:21.684Z,30.10
2022-08-12T21:50:03.555Z,30.00
2022-08-12T21:52:36.444Z,30.00
2022-08-12T21:55:08.235Z,29.90
2022-08-12T21:57:51.301Z,29.90
2022-08-12T22:00:31.744Z,29.90
2022-08-12T22:03:30.376Z,29.80
2022-08-12T22:06:30.893Z,29.50
2022-08-12T22:09:16.394Z,29.60
2022-08-12T22:11:56.240Z,29.70
2022-08-12T22:14:30.050Z,29.70
2022-08-12T22:17:01.383Z,29.70
2022-08-12T22:19:33.590Z,29.70
2022-08-12T22:22:03.869Z,29.70
2022-08-12T22:24:33.148Z,29.60
2022-08-12T22:27:07.971Z,29.60
2022-08-12T22:30:16.023Z,29.70
2022-08-12T22:32:50.564Z,29.70
2022-08-12T22:35:47.511Z,29.60
2022-08-12T22:38:26.255Z,29.50
2022-08-12T22:40:58.439Z,29.50
2022-08-12T22:44:00.925Z,29.50
2022-08-12T22:46:53.679Z,29.40
2022-08-12T22:49:22.726Z,29.30
2022-08-12T22:52:08.274Z,29.30
2022-08-12T22:54:37.724Z,29.30
2022-08-12T22:57:49.736Z,29.40
2022-08-12T23:00:24.727Z,29.30
2022-08-12T23:03:00.573Z,29.20
2022-08-12T23:05:56.600Z,29.20
2022-08-12T23:08:21.827Z,29.20
2022-08-12T23:10:50.239Z,29.10
2022-08-12T23:13:43.823Z,29.10
2022-08-12T23:16:28.501Z,28.90
2022-08-12T23:19:09.521Z,28.90
2022-08-12T23:22:05.168Z,28.90
2022-08-12T23:24:53.765Z,28.90
2022-08-12T23:27:50.255Z,28.80
2022-08-12T23:30:25.050Z,28.80
2022-08-12T23:33:00.596Z,28.80
2022-08-12T23:35:54.001Z,28.70
2022-08-12T23:38:31.176Z,28.70
2022-08-12T23:41:01.333Z,28.60
2022-08-12T23:43:38.913Z,28.70
2022-08-12T23:46:09.917Z,28.70
2022-08-12T23:48:38.420Z,28.70
2022-08-12T23:51:22.793Z,28.60
2022-08-12T23:53:56.165Z,28.60
2022-08-12T23:56:25.458Z,28.60
2022-08-12T23:58:55.349Z,28.60
